Time;durP1;ratioP1;P1;durP2;ratioP2;P2;SDS_P1;SDS_P2;PMS_P1;PMS_P2;Temp;Humidity;BMP_temperature;BMP_pressure;BME280_temperature;BME280_humidity;BME280_pressure;Samples;Min_cycle;Max_cycle;Signal;HPM_P1;HPM_P2
2022/10/11 00:00:50;;;;;;;36.97;15.25;;;;;;;;;;6310635;28;20052;-60
2022/10/11 00:04:05;;;;;;;35.28;14.32;;;;;;;;;;6313941;28;20495;-61
2022/10/11 00:07:06;;;;;;;34.65;15.77;;;;;;;;;;6307134;28;20055;-61
2022/10/11 00:10:08;;;;;;;34.83;14.35;;;;;;;;;;6308544;28;20127;-61
2022/10/11 00:13:08;;;;;;;38.50;14.87;;;;;;;;;;6308366;28;20085;-61
2022/10/11 00:16:11;;;;;;;36.78;15.60;;;;;;;;;;6308028;28;20524;-61
2022/10/11 00:19:11;;;;;;;;;;;;;;;;;;6307611;28;20048;-60
2022/10/11 00:22:12;;;;;;;33.65;15.75;;;;;;;;;;6313703;28;20432;-61
2022/10/11 00:25:13;;;;;;;42.88;15.88;;;;;;;;;;6310392;28;20044;-60
2022/10/11 00:28:13;;;;;;;42.42;17.45;;;;;;;;;;6306956;28;20109;-61
2022/10/11 00:31:15;;;;;;;43.97;17.77;;;;;;;;;;6306255;28;20040;-62
2022/10/11 00:34:16;;;;;;;43.25;17.63;;;;;;;;;;6309503;28;20175;-61
2022/10/11 00:37:18;;;;;;;39.40;17.03;;;;;;;;;;6310055;28;20406;-62
2022/10/11 00:40:19;;;;;;;41.58;17.00;;;;;;;;;;6313433;28;20501;-61
2022/10/11 00:43:23;;;;;;;40.53;16.02;;;;;;;;;;6308713;28;20048;-60
2022/10/11 00:46:28;;;;;;;35.33;15.70;;;;;;;;;;6306774;28;20181;-61
2022/10/11 00:49:55;;;;;;;35.42;15.63;;;;;;;;;;6306898;28;20079;-61
2022/10/11 00:52:59;;;;;;;34.50;15.57;;;;;;;;;;6313463;28;20079;-61
2022/10/11 00:56:08;;;;;;;41.85;17.38;;;;;;;;;;6312098;28;20059;-61
2022/10/11 00:59:17;;;;;;;43.60;15.60;;;;;;;;;;6313311;28;20130;-61
2022/10/11 01:02:19;;;;;;;34.70;16.02;;;;;;;;;;6313315;28;20093;-62
2022/10/11 01:05:20;;;;;;;42.72;17.35;;;;;;;;;;6315687;28;20075;-61
2022/10/11 01:08:20;;;;;;;39.05;16.55;;;;;;;;;;6318389;28;20603;-61
2022/10/11 01:11:25;;;;;;;44.00;17.15;;;;;;;;;;6313563;28;20465;-61
2022/10/11 01:14:47;;;;;;;38.17;16.33;;;;;;;;;;6315520;28;20430;-61
2022/10/11 01:17:47;;;;;;;32.47;14.65;;;;;;;;;;6311483;28;20155;-61
2022/10/11 01:21:13;;;;;;;37.85;15.70;;;;;;;;;;6309549;28;20052;-61
2022/10/11 01:24:47;;;;;;;36.50;14.70;;;;;;;;;;6283388;28;20143;-60
2022/10/11 01:27:56;;;;;;;41.75;16.05;;;;;;;;;;6298717;28;20529;-61
2022/10/11 01:31:07;;;;;;;38.88;15.15;;;;;;;;;;6311704;28;20051;-61
2022/10/11 01:34:31;;;;;;;36.60;15.50;;;;;;;;;;6316346;28;20076;-61
2022/10/11 01:37:43;;;;;;;42.40;16.90;;;;;;;;;;6315571;28;20059;-61
2022/10/11 01:40:58;;;;;;;45.78;17.17;;;;;;;;;;6319578;28;20479;-61
2022/10/11 01:44:01;;;;;;;36.10;16.70;;;;;;;;;;6320215;28;20071;-61
2022/10/11 01:47:02;;;;;;;42.53;17.70;;;;;;;;;;6320735;28;20104;-61
2022/10/11 01:50:03;;;;;;;40.72;17.60;;;;;;;;;;6314593;28;20048;-61
2022/10/11 01:53:23;;;;;;;37.35;16.30;;;;;;;;;;6318167;28;20051;-61
2022/10/11 01:56:41;;;;;;;41.00;16.20;;;;;;;;;;6309066;28;20503;-61
2022/10/11 02:00:05;;;;;;;38.80;15.07;;;;;;;;;;6313967;28;20048;-61
2022/10/11 02:03:06;;;;;;;42.13;14.43;;;;;;;;;;6319593;28;20142;-61
2022/10/11 02:06:20;;;;;;;35.10;14.07;;;;;;;;;;6308678;28;21147;-61
2022/10/11 02:09:40;;;;;;;30.13;13.63;;;;;;;;;;6318163;28;20135;-61
2022/10/11 02:12:50;;;;;;;45.67;14.30;;;;;;;;;;6313220;28;20380;-61
2022/10/11 02:15:52;;;;;;;34.72;14.57;;;;;;;;;;6318048;28;20135;-61
2022/10/11 02:18:56;;;;;;;32.58;13.43;;;;;;;;;;6312960;28;20048;-61
2022/10/11 02:22:03;;;;;;;30.35;13.20;;;;;;;;;;6312131;28;20047;-61
2022/10/11 02:25:08;;;;;;;28.77;11.85;;;;;;;;;;6316570;28;20487;-61
2022/10/11 02:28:16;;;;;;;30.50;11.65;;;;;;;;;;6315708;28;20506;-62
2022/10/11 02:31:19;;;;;;;27.95;11.60;;;;;;;;;;6309294;28;20067;-62
2022/10/11 02:34:24;;;;;;;32.83;12.02;;;;;;;;;;6319235;28;20417;-61
2022/10/11 02:38:04;;;;;;;25.33;11.32;;;;;;;;;;6313261;28;20135;-61
2022/10/11 02:41:14;;;;;;;23.25;10.50;;;;;;;;;;6316112;28;20063;-61
2022/10/11 02:44:31;;;;;;;27.17;10.93;;;;;;;;;;6314621;28;20051;-62
2022/10/11 02:47:32;;;;;;;21.73;9.40;;;;;;;;;;6309754;28;20307;-61
2022/10/11 02:50:33;;;;;;;23.05;9.57;;;;;;;;;;6314051;28;20495;-62
2022/10/11 02:53:33;;;;;;;19.83;8.90;;;;;;;;;;6316504;28;20055;-62
2022/10/11 02:56:34;;;;;;;19.67;8.43;;;;;;;;;;6308380;28;20039;-61
2022/10/11 02:59:34;;;;;;;20.20;9.05;;;;;;;;;;6310781;28;20044;-61
2022/10/11 03:02:35;;;;;;;22.27;10.10;;;;;;;;;;6317318;28;20047;-61
2022/10/11 03:05:42;;;;;;;23.35;8.85;;;;;;;;;;6313136;28;20085;-62
2022/10/11 03:08:43;;;;;;;18.67;8.02;;;;;;;;;;6315300;28;20086;-61
2022/10/11 03:11:43;;;;;;;18.30;7.70;;;;;;;;;;6314960;28;20047;-61
2022/10/11 03:14:44;;;;;;;20.05;7.85;;;;;;;;;;6313019;28;20467;-61
2022/10/11 03:17:45;;;;;;;20.98;7.88;;;;;;;;;;6314456;28;20047;-61
2022/10/11 03:20:45;;;;;;;19.05;8.50;;;;;;;;;;6313606;28;20397;-61
2022/10/11 03:23:46;;;;;;;19.55;8.27;;;;;;;;;;6307740;28;20050;-61
2022/10/11 03:26:46;;;;;;;20.50;7.43;;;;;;;;;;6309778;28;20127;-62
2022/10/11 03:29:47;;;;;;;21.33;7.78;;;;;;;;;;6309863;28;20454;-61
2022/10/11 03:32:47;;;;;;;21.00;8.63;;;;;;;;;;6309439;28;20048;-62
2022/10/11 03:35:49;;;;;;;20.33;8.20;;;;;;;;;;6309029;28;20099;-61
2022/10/11 03:38:49;;;;;;;17.35;7.70;;;;;;;;;;6310438;28;20540;-62
2022/10/11 03:41:50;;;;;;;25.42;9.30;;;;;;;;;;6315929;28;20044;-61
2022/10/11 03:44:50;;;;;;;19.90;8.60;;;;;;;;;;6309150;28;20043;-62
2022/10/11 03:47:51;;;;;;;30.77;8.48;;;;;;;;;;6313887;28;20051;-62
2022/10/11 03:50:52;;;;;;;17.88;8.10;;;;;;;;;;6308497;28;20487;-62
2022/10/11 03:53:52;;;;;;;23.50;9.30;;;;;;;;;;6308636;28;20479;-62
2022/10/11 03:56:53;;;;;;;21.90;8.52;;;;;;;;;;6308870;28;20054;-62
2022/10/11 03:59:53;;;;;;;24.23;9.00;;;;;;;;;;6310803;28;20135;-62
2022/10/11 04:02:54;;;;;;;20.48;9.10;;;;;;;;;;6308934;28;20032;-61
2022/10/11 04:05:54;;;;;;;23.23;9.18;;;;;;;;;;6309797;28;20047;-61
2022/10/11 04:08:55;;;;;;;24.88;8.68;;;;;;;;;;6311589;28;20097;-61
2022/10/11 04:11:55;;;;;;;23.23;9.45;;;;;;;;;;6307704;28;20154;-62
2022/10/11 04:14:56;;;;;;;27.08;9.23;;;;;;;;;;6308166;28;20125;-61
2022/10/11 04:17:56;;;;;;;19.23;9.25;;;;;;;;;;6309232;28;20047;-62
2022/10/11 04:20:57;;;;;;;20.27;8.52;;;;;;;;;;6312204;28;20503;-61
2022/10/11 04:23:58;;;;;;;23.60;8.60;;;;;;;;;;6315968;28;20055;-60
2022/10/11 04:26:58;;;;;;;19.55;9.02;;;;;;;;;;6312919;28;20048;-61
2022/10/11 04:29:59;;;;;;;22.17;8.65;;;;;;;;;;6309045;28;20040;-61
2022/10/11 04:32:59;;;;;;;18.98;8.23;;;;;;;;;;6312821;28;20083;-60
2022/10/11 04:36:00;;;;;;;21.08;9.07;;;;;;;;;;6306004;28;20063;-61
2022/10/11 04:39:00;;;;;;;18.13;7.95;;;;;;;;;;6308150;28;20138;-61
2022/10/11 04:42:01;;;;;;;20.60;7.90;;;;;;;;;;6304153;28;20055;-61
2022/10/11 04:45:02;;;;;;;20.85;8.10;;;;;;;;;;6305509;28;20079;-61
2022/10/11 04:48:02;;;;;;;22.08;8.77;;;;;;;;;;6314652;28;20052;-61
2022/10/11 04:51:03;;;;;;;23.30;9.07;;;;;;;;;;6315457;28;20056;-61
2022/10/11 04:54:04;;;;;;;18.75;7.90;;;;;;;;;;6315341;28;20104;-61
2022/10/11 04:57:04;;;;;;;18.00;8.13;;;;;;;;;;6316448;28;20050;-61
2022/10/11 05:00:05;;;;;;;24.60;9.07;;;;;;;;;;6316422;28;20075;-61
2022/10/11 05:03:06;;;;;;;21.00;8.80;;;;;;;;;;6316509;28;20048;-61
2022/10/11 05:06:06;;;;;;;18.10;8.35;;;;;;;;;;6316539;28;20506;-61
2022/10/11 05:09:07;;;;;;;20.00;8.18;;;;;;;;;;6316768;28;20032;-61
2022/10/11 05:12:08;;;;;;;19.95;8.55;;;;;;;;;;6315899;28;20048;-60
2022/10/11 05:15:09;;;;;;;21.63;9.43;;;;;;;;;;6315045;28;20040;-60
2022/10/11 05:18:10;;;;;;;24.55;9.68;;;;;;;;;;6314220;28;20051;-62
2022/10/11 05:21:10;;;;;;;23.90;10.25;;;;;;;;;;6316295;28;20050;-62
2022/10/11 05:24:11;;;;;;;28.02;10.55;;;;;;;;;;6315260;28;20059;-63
2022/10/11 05:27:11;;;;;;;36.80;19.88;;;;;;;;;;6316985;28;20040;-62
2022/10/11 05:30:12;;;;;;;42.42;17.35;;;;;;;;;;6309976;28;20047;-62
2022/10/11 05:33:12;;;;;;;28.00;13.90;;;;;;;;;;6314549;28;20060;-61
2022/10/11 05:36:14;;;;;;;34.85;14.90;;;;;;;;;;6306507;28;20047;-61
2022/10/11 05:39:14;;;;;;;33.03;14.32;;;;;;;;;;6310727;28;20040;-61
2022/10/11 05:42:15;;;;;;;28.35;11.65;;;;;;;;;;6311332;28;20050;-61
2022/10/11 05:45:15;;;;;;;28.88;11.98;;;;;;;;;;6310505;28;20050;-61
2022/10/11 05:48:16;;;;;;;34.17;13.63;;;;;;;;;;6311508;28;20506;-62
2022/10/11 05:51:16;;;;;;;28.83;13.48;;;;;;;;;;6312493;28;20457;-61
2022/10/11 05:54:17;;;;;;;29.77;12.35;;;;;;;;;;6312414;28;20068;-61
2022/10/11 05:57:17;;;;;;;38.80;14.18;;;;;;;;;;6312152;28;20505;-62
2022/10/11 06:00:18;;;;;;;29.50;12.65;;;;;;;;;;6317220;28;20055;-61
2022/10/11 06:03:19;;;;;;;34.58;13.35;;;;;;;;;;6318075;28;20086;-62
2022/10/11 06:06:20;;;;;;;30.38;13.13;;;;;;;;;;6320346;28;20135;-61
2022/10/11 06:09:21;;;;;;;202.32;96.15;;;;;;;;;;6315266;28;20096;-62
2022/10/11 06:12:21;;;;;;;35.38;14.32;;;;;;;;;;6312681;28;20485;-61
2022/10/11 06:15:22;;;;;;;35.78;14.15;;;;;;;;;;6311847;28;20040;-61
2022/10/11 06:18:23;;;;;;;36.08;14.40;;;;;;;;;;6310794;28;20074;-66
2022/10/11 06:21:24;;;;;;;34.60;14.35;;;;;;;;;;6310569;28;20130;-62
2022/10/11 06:24:24;;;;;;;42.50;15.15;;;;;;;;;;6311532;28;20044;-61
2022/10/11 06:27:25;;;;;;;35.63;14.25;;;;;;;;;;6311753;28;20048;-62
2022/10/11 06:30:25;;;;;;;42.65;15.80;;;;;;;;;;6309979;28;20189;-61
2022/10/11 06:33:26;;;;;;;39.28;14.32;;;;;;;;;;6311969;28;20376;-61
2022/10/11 06:36:27;;;;;;;35.15;14.85;;;;;;;;;;6311998;28;20560;-61
2022/10/11 06:39:28;;;;;;;38.40;14.43;;;;;;;;;;6312622;28;20070;-61
2022/10/11 06:42:28;;;;;;;38.20;14.65;;;;;;;;;;6311464;28;20131;-61
2022/10/11 06:45:29;;;;;;;40.65;14.48;;;;;;;;;;6312199;28;20051;-61
2022/10/11 06:48:30;;;;;;;36.80;14.73;;;;;;;;;;6312417;28;20085;-61
2022/10/11 06:51:31;;;;;;;31.52;13.25;;;;;;;;;;6310900;28;20424;-62
2022/10/11 06:54:31;;;;;;;30.33;13.30;;;;;;;;;;6312197;28;20048;-61
2022/10/11 06:57:32;;;;;;;29.30;13.23;;;;;;;;;;6312355;28;20067;-61
2022/10/11 07:00:33;;;;;;;33.00;13.70;;;;;;;;;;6312576;28;20052;-61
2022/10/11 07:03:34;;;;;;;33.20;14.05;;;;;;;;;;6310715;28;20044;-61
2022/10/11 07:06:38;;;;;;;34.75;14.40;;;;;;;;;;6310670;28;20047;-61
2022/10/11 07:09:38;;;;;;;35.65;13.52;;;;;;;;;;6309054;28;20049;-61
2022/10/11 07:12:42;;;;;;;38.55;15.27;;;;;;;;;;6307703;28;20066;-70
2022/10/11 07:15:43;;;;;;;34.25;14.30;;;;;;;;;;6310471;28;20040;-61
2022/10/11 07:18:43;;;;;;;37.95;16.23;;;;;;;;;;6312242;28;20117;-62
2022/10/11 07:21:44;;;;;;;33.72;13.60;;;;;;;;;;6310159;28;20052;-62
2022/10/11 07:24:44;;;;;;;36.97;14.38;;;;;;;;;;6309699;28;20052;-61
2022/10/11 07:27:45;;;;;;;34.40;13.23;;;;;;;;;;6308893;28;20585;-61
2022/10/11 07:30:46;;;;;;;36.85;14.77;;;;;;;;;;6309998;28;20663;-61
2022/10/11 07:33:46;;;;;;;36.15;14.70;;;;;;;;;;6308925;28;20044;-63
2022/10/11 07:36:47;;;;;;;38.88;14.73;;;;;;;;;;6310349;28;20497;-61
2022/10/11 07:39:48;;;;;;;38.95;16.05;;;;;;;;;;6311419;28;20051;-62
2022/10/11 07:42:49;;;;;;;39.58;16.42;;;;;;;;;;6310606;28;20143;-62
2022/10/11 07:45:53;;;;;;;42.40;17.35;;;;;;;;;;6311214;28;20044;-62
2022/10/11 07:48:53;;;;;;;44.33;17.63;;;;;;;;;;6309422;28;20598;-62
2022/10/11 07:51:54;;;;;;;55.25;19.33;;;;;;;;;;6307991;28;20048;-62
2022/10/11 07:54:55;;;;;;;52.00;19.15;;;;;;;;;;6308234;28;20072;-62
2022/10/11 07:57:56;;;;;;;48.80;18.55;;;;;;;;;;6309316;28;20047;-62
2022/10/11 08:00:56;;;;;;;45.27;18.33;;;;;;;;;;6307532;28;20036;-62
2022/10/11 08:03:58;;;;;;;44.50;18.73;;;;;;;;;;6309574;28;20288;-60
2022/10/11 08:06:58;;;;;;;53.05;20.45;;;;;;;;;;6310626;28;20055;-62
2022/10/11 08:09:59;;;;;;;56.10;19.23;;;;;;;;;;6308750;28;20052;-61
2022/10/11 08:12:59;;;;;;;49.15;20.08;;;;;;;;;;6309294;28;20557;-62
2022/10/11 08:16:07;;;;;;;49.15;20.52;;;;;;;;;;6309532;28;20055;-62
2022/10/11 08:19:09;;;;;;;52.17;19.85;;;;;;;;;;6309626;28;20134;-61
2022/10/11 08:22:09;;;;;;;54.03;20.90;;;;;;;;;;6308713;28;20117;-62
2022/10/11 08:25:10;;;;;;;50.85;21.20;;;;;;;;;;6309811;28;20075;-61
2022/10/11 08:28:15;;;;;;;46.50;20.00;;;;;;;;;;6311732;28;20056;-61
2022/10/11 08:31:16;;;;;;;47.78;19.88;;;;;;;;;;6310810;28;20143;-62
2022/10/11 08:34:16;;;;;;;54.97;20.20;;;;;;;;;;6310054;28;20847;-62
2022/10/11 08:37:17;;;;;;;50.85;20.27;;;;;;;;;;6313107;28;20994;-61
2022/10/11 08:40:19;;;;;;;49.47;20.00;;;;;;;;;;6314078;28;20047;-62
2022/10/11 08:43:43;;;;;;;48.75;20.52;;;;;;;;;;6310995;28;20507;-63
2022/10/11 08:46:49;;;;;;;57.70;21.15;;;;;;;;;;6309991;28;20056;-62
2022/10/11 08:49:50;;;;;;;56.83;23.13;;;;;;;;;;6309285;28;20147;-62
2022/10/11 08:53:02;;;;;;;55.47;24.33;;;;;;;;;;6306299;28;20048;-61
2022/10/11 08:56:02;;;;;;;;;;;;;;;;;;6312765;28;20044;-62
2022/10/11 08:59:12;;;;;;;62.88;24.05;;;;;;;;;;6310847;28;20443;-61
2022/10/11 09:02:24;;;;;;;82.75;32.67;;;;;;;;;;6308715;28;20174;-62
2022/10/11 09:05:27;;;;;;;;;;;;;;;;;;6309110;28;20048;-62
2022/10/11 09:08:51;;;;;;;73.53;31.23;;;;;;;;;;6313087;28;20010;-62
2022/10/11 09:12:22;;;;;;;70.15;30.55;;;;;;;;;;6301754;28;20058;-63
2022/10/11 09:15:50;;;;;;;72.03;29.80;;;;;;;;;;6311245;28;20043;-62
2022/10/11 09:19:04;;;;;;;67.43;30.10;;;;;;;;;;6314316;28;20164;-61
2022/10/11 09:22:43;;;;;;;63.45;28.30;;;;;;;;;;6311056;28;20707;-61
2022/10/11 09:26:16;;;;;;;64.88;28.10;;;;;;;;;;6273932;28;20055;-62
2022/10/11 09:29:20;;;;;;;;;;;;;;;;;;6310038;28;20055;-62
2022/10/11 09:32:23;;;;;;;66.50;27.10;;;;;;;;;;6314950;28;19927;-62
2022/10/11 09:35:23;;;;;;;60.70;27.08;;;;;;;;;;6311620;28;20049;-62
2022/10/11 09:38:37;;;;;;;66.95;27.40;;;;;;;;;;6313622;28;20055;-62
2022/10/11 09:42:01;;;;;;;67.72;29.60;;;;;;;;;;6312069;28;20515;-61
2022/10/11 09:45:13;;;;;;;72.65;30.42;;;;;;;;;;6313555;28;20055;-62
2022/10/11 09:48:22;;;;;;;69.70;28.75;;;;;;;;;;6311231;28;20044;-62
2022/10/11 09:51:26;;;;;;;65.22;28.05;;;;;;;;;;6312085;28;20032;-61
2022/10/11 09:54:37;;;;;;;63.75;26.27;;;;;;;;;;6314440;28;20121;-62
2022/10/11 09:57:39;;;;;;;59.83;28.23;;;;;;;;;;6312616;28;20040;-61
2022/10/11 10:00:39;;;;;;;59.33;24.67;;;;;;;;;;6313043;28;20138;-62
2022/10/11 10:03:42;;;;;;;62.00;25.27;;;;;;;;;;6315364;28;20047;-62
2022/10/11 10:06:43;;;;;;;62.42;26.08;;;;;;;;;;6316142;28;20140;-62
2022/10/11 10:09:43;;;;;;;63.90;23.48;;;;;;;;;;6312884;28;20040;-62
2022/10/11 10:12:52;;;;;;;53.13;23.15;;;;;;;;;;6312029;28;20147;-62
2022/10/11 10:16:00;;;;;;;48.58;20.88;;;;;;;;;;6313836;28;20123;-62
2022/10/11 10:19:17;;;;;;;50.53;21.45;;;;;;;;;;6313413;28;20494;-62
2022/10/11 10:22:20;;;;;;;62.08;22.23;;;;;;;;;;6315876;28;20063;-62
2022/10/11 10:25:33;;;;;;;51.65;21.95;;;;;;;;;;6319542;28;20047;-62
2022/10/11 10:28:34;;;;;;;57.97;23.88;;;;;;;;;;6319692;28;20064;-62
2022/10/11 10:31:50;;;;;;;56.05;23.77;;;;;;;;;;6313673;28;20056;-62
2022/10/11 10:35:01;;;;;;;56.08;22.38;;;;;;;;;;6310830;28;20047;-62
2022/10/11 10:38:05;;;;;;;62.72;24.27;;;;;;;;;;6311377;28;20130;-62
2022/10/11 10:41:11;;;;;;;61.70;24.42;;;;;;;;;;6313467;28;20060;-62
2022/10/11 10:44:14;;;;;;;56.15;22.48;;;;;;;;;;6312145;28;20102;-61
2022/10/11 10:48:13;;;;;;;51.05;21.75;;;;;;;;;;6312505;28;20075;-62
2022/10/11 10:51:27;;;;;;;49.53;20.42;;;;;;;;;;6296614;28;20127;-62
2022/10/11 10:54:36;;;;;;;43.20;17.15;;;;;;;;;;6311697;28;20142;-62
2022/10/11 10:58:03;;;;;;;39.47;16.92;;;;;;;;;;6309920;28;20075;-62
2022/10/11 11:01:17;;;;;;;39.58;15.27;;;;;;;;;;6311460;28;20044;-62
2022/10/11 11:04:29;;;;;;;33.50;15.02;;;;;;;;;;6312464;28;20048;-62
2022/10/11 11:07:42;;;;;;;34.53;14.13;;;;;;;;;;6311510;28;20071;-62
2022/10/11 11:10:52;;;;;;;35.13;14.50;;;;;;;;;;6309130;28;20040;-63
2022/10/11 11:14:14;;;;;;;37.28;14.18;;;;;;;;;;6311020;28;20499;-64
2022/10/11 11:17:18;;;;;;;32.25;15.27;;;;;;;;;;6313039;28;20067;-62
2022/10/11 11:20:35;;;;;;;31.80;14.55;;;;;;;;;;6310749;28;20458;-63
2022/10/11 11:23:52;;;;;;;41.20;18.67;;;;;;;;;;6311573;28;20055;-62
2022/10/11 11:27:47;;;;;;;40.20;17.80;;;;;;;;;;6313176;28;20051;-60
2022/10/11 11:30:51;;;;;;;42.17;18.38;;;;;;;;;;6253731;28;20077;-62
2022/10/11 11:33:52;;;;;;;42.20;18.92;;;;;;;;;;6309571;28;20036;-61
2022/10/11 11:37:03;;;;;;;39.53;17.15;;;;;;;;;;6311007;28;20067;-62
2022/10/11 11:40:16;;;;;;;36.58;16.25;;;;;;;;;;6311342;28;20048;-61
2022/10/11 11:43:32;;;;;;;35.40;16.20;;;;;;;;;;6310646;28;20669;-62
2022/10/11 11:46:39;;;;;;;31.65;14.82;;;;;;;;;;6310708;28;20051;-62
2022/10/11 11:49:45;;;;;;;35.47;14.93;;;;;;;;;;6309311;28;20048;-62
2022/10/11 11:52:50;;;;;;;33.53;14.55;;;;;;;;;;6301905;28;20040;-62
2022/10/11 11:56:02;;;;;;;35.30;14.93;;;;;;;;;;6297370;28;20056;-63
2022/10/11 11:59:14;;;;;;;;;;;;;;;;;;6297842;28;20036;-63
2022/10/11 12:02:15;;;;;;;31.05;13.98;;;;;;;;;;6293615;28;19979;-63
2022/10/11 12:05:19;;;;;;;29.08;13.73;;;;;;;;;;6292360;28;20432;-63
2022/10/11 12:08:27;;;;;;;37.35;15.70;;;;;;;;;;6292773;28;20863;-61
2022/10/11 12:11:36;;;;;;;28.55;13.23;;;;;;;;;;6292100;28;20050;-61
2022/10/11 12:14:39;;;;;;;23.50;12.50;;;;;;;;;;6292134;28;20075;-62
2022/10/11 12:17:55;;;;;;;21.75;12.30;;;;;;;;;;6294403;28;20052;-63
2022/10/11 12:21:19;;;;;;;25.42;12.75;;;;;;;;;;6292615;28;20053;-62
2022/10/11 12:24:22;;;;;;;34.20;13.70;;;;;;;;;;6287847;28;21401;-63
2022/10/11 12:27:39;;;;;;;26.55;11.88;;;;;;;;;;6292894;28;20433;-62
2022/10/11 12:30:45;;;;;;;24.30;11.70;;;;;;;;;;6294700;28;20636;-63
2022/10/11 12:33:47;;;;;;;25.55;11.52;;;;;;;;;;6293621;28;20048;-62
2022/10/11 12:36:50;;;;;;;21.65;12.02;;;;;;;;;;6291521;28;20122;-63
2022/10/11 12:39:53;;;;;;;25.40;10.60;;;;;;;;;;6293983;28;20075;-63
2022/10/11 12:43:12;;;;;;;17.90;9.85;;;;;;;;;;6297460;28;20067;-63
2022/10/11 12:46:29;;;;;;;22.30;10.85;;;;;;;;;;6290536;28;20151;-63
2022/10/11 12:49:31;;;;;;;22.73;9.48;;;;;;;;;;6304028;28;20411;-62
2022/10/11 12:52:47;;;;;;;18.20;8.83;;;;;;;;;;6300005;28;20083;-63
2022/10/11 12:56:10;;;;;;;17.88;9.10;;;;;;;;;;6292970;28;20059;-64
2022/10/11 12:59:18;;;;;;;18.83;8.55;;;;;;;;;;6299476;28;20040;-62
2022/10/11 13:02:43;;;;;;;15.25;7.78;;;;;;;;;;6296782;28;20087;-63
2022/10/11 13:05:45;;;;;;;15.13;7.18;;;;;;;;;;6295462;28;20044;-64
2022/10/11 13:08:53;;;;;;;15.73;8.10;;;;;;;;;;6298011;28;20050;-64
2022/10/11 13:11:57;;;;;;;18.75;8.15;;;;;;;;;;6297001;28;20171;-62
2022/10/11 13:15:07;;;;;;;15.70;7.75;;;;;;;;;;6294948;28;20052;-62
2022/10/11 13:18:13;;;;;;;14.50;7.55;;;;;;;;;;6296860;28;20569;-63
2022/10/11 13:21:38;;;;;;;18.10;7.70;;;;;;;;;;6297720;28;20048;-63
2022/10/11 13:24:39;;;;;;;14.85;7.75;;;;;;;;;;6296290;28;20052;-64
2022/10/11 13:27:39;;;;;;;20.20;8.35;;;;;;;;;;6297133;28;20055;-63
2022/10/11 13:30:53;;;;;;;19.83;7.90;;;;;;;;;;6293408;28;20040;-63
2022/10/11 13:33:56;;;;;;;20.70;7.88;;;;;;;;;;6297757;28;20052;-63
2022/10/11 13:36:57;;;;;;;14.90;7.20;;;;;;;;;;6293921;28;20196;-62
2022/10/11 13:39:58;;;;;;;19.75;7.70;;;;;;;;;;6298996;28;20101;-62
2022/10/11 13:42:59;;;;;;;23.73;9.05;;;;;;;;;;6296145;28;20052;-62
2022/10/11 13:46:01;;;;;;;16.75;8.25;;;;;;;;;;6293077;28;20052;-63
2022/10/11 13:49:21;;;;;;;16.92;7.65;;;;;;;;;;6299571;28;20082;-62
2022/10/11 13:52:23;;;;;;;19.23;8.63;;;;;;;;;;6297123;28;20048;-61
2022/10/11 13:55:27;;;;;;;22.25;8.23;;;;;;;;;;6294735;28;20814;-62
2022/10/11 13:58:35;;;;;;;16.45;7.75;;;;;;;;;;6296746;28;20082;-62
2022/10/11 14:01:42;;;;;;;18.30;6.95;;;;;;;;;;6296572;28;20048;-62
2022/10/11 14:04:43;;;;;;;14.57;8.05;;;;;;;;;;6294055;28;20059;-63
2022/10/11 14:07:46;;;;;;;15.25;6.95;;;;;;;;;;6296475;28;20063;-64
2022/10/11 14:10:48;;;;;;;19.77;7.78;;;;;;;;;;6296354;28;20135;-60
2022/10/11 14:13:48;;;;;;;15.10;7.60;;;;;;;;;;6297123;28;20048;-62
2022/10/11 14:16:57;;;;;;;16.13;7.25;;;;;;;;;;6293039;28;20824;-62
2022/10/11 14:20:13;;;;;;;19.30;7.78;;;;;;;;;;6297515;28;20146;-62
2022/10/11 14:23:13;;;;;;;17.98;8.13;;;;;;;;;;6295086;28;20068;-63
2022/10/11 14:26:15;;;;;;;16.50;7.40;;;;;;;;;;6294131;28;20052;-62
2022/10/11 14:29:19;;;;;;;13.65;6.82;;;;;;;;;;6294587;28;20186;-61
2022/10/11 14:32:28;;;;;;;15.02;7.20;;;;;;;;;;6295537;28;20476;-62
2022/10/11 14:35:31;;;;;;;15.10;6.93;;;;;;;;;;6292423;28;20061;-62
2022/10/11 14:38:31;;;;;;;;;;;;;;;;;;6295926;28;20093;-63
2022/10/11 14:41:32;;;;;;;18.88;7.25;;;;;;;;;;6298719;28;19955;-63
2022/10/11 14:44:32;;;;;;;21.27;6.82;;;;;;;;;;6293775;28;20581;-61
2022/10/11 14:47:34;;;;;;;16.23;6.95;;;;;;;;;;6296751;28;20110;-61
2022/10/11 14:50:46;;;;;;;14.18;7.22;;;;;;;;;;6294232;28;20056;-63
2022/10/11 14:53:47;;;;;;;15.37;7.30;;;;;;;;;;6298324;28;20051;-62
2022/10/11 14:56:50;;;;;;;16.85;7.03;;;;;;;;;;6296845;28;20438;-63
2022/10/11 14:59:50;;;;;;;17.02;7.30;;;;;;;;;;6296403;28;20159;-63
2022/10/11 15:02:52;;;;;;;14.35;6.88;;;;;;;;;;6297420;28;20052;-62
2022/10/11 15:05:52;;;;;;;19.10;7.10;;;;;;;;;;6295379;28;20059;-61
2022/10/11 15:08:53;;;;;;;17.17;7.20;;;;;;;;;;6297470;28;20084;-62
2022/10/11 15:11:54;;;;;;;18.13;6.88;;;;;;;;;;6294950;28;20059;-62
2022/10/11 15:14:55;;;;;;;18.73;7.37;;;;;;;;;;6295687;28;20056;-62
2022/10/11 15:17:58;;;;;;;18.60;7.63;;;;;;;;;;6295954;28;20301;-62
2022/10/11 15:20:59;;;;;;;15.57;6.95;;;;;;;;;;6293816;28;20136;-64
2022/10/11 15:23:59;;;;;;;16.17;7.22;;;;;;;;;;6294170;28;20072;-62
2022/10/11 15:27:00;;;;;;;17.90;6.47;;;;;;;;;;6292422;28;20056;-63
2022/10/11 15:30:01;;;;;;;13.95;5.90;;;;;;;;;;6293781;28;20554;-62
2022/10/11 15:33:03;;;;;;;14.55;6.53;;;;;;;;;;6292552;28;20076;-64
2022/10/11 15:36:06;;;;;;;14.43;7.00;;;;;;;;;;6292147;28;20056;-62
2022/10/11 15:39:21;;;;;;;21.00;6.72;;;;;;;;;;6291995;28;20056;-65
2022/10/11 15:42:22;;;;;;;15.57;6.90;;;;;;;;;;6292388;28;20063;-61
2022/10/11 15:45:23;;;;;;;16.85;6.78;;;;;;;;;;6290389;28;20731;-60
2022/10/11 15:48:25;;;;;;;16.15;6.43;;;;;;;;;;6292045;28;20143;-62
2022/10/11 15:51:26;;;;;;;19.10;6.68;;;;;;;;;;6295049;28;20441;-64
2022/10/11 15:54:26;;;;;;;16.15;7.78;;;;;;;;;;6293088;28;20055;-64
2022/10/11 15:57:27;;;;;;;14.35;6.68;;;;;;;;;;6295219;28;20091;-61
2022/10/11 16:00:28;;;;;;;16.52;6.88;;;;;;;;;;6314739;28;20789;-62
2022/10/11 16:03:30;;;;;;;25.65;9.15;;;;;;;;;;6300807;28;20195;-61
2022/10/11 16:06:32;;;;;;;23.83;9.15;;;;;;;;;;6292844;28;20372;-62
2022/10/11 16:09:32;;;;;;;31.20;10.85;;;;;;;;;;6293056;28;20067;-60
2022/10/11 16:12:33;;;;;;;27.15;11.85;;;;;;;;;;6297724;28;20131;-61
2022/10/11 16:15:38;;;;;;;24.63;11.25;;;;;;;;;;6291978;28;20072;-60
2022/10/11 16:18:39;;;;;;;23.17;9.95;;;;;;;;;;6291617;28;20040;-60
2022/10/11 16:21:40;;;;;;;21.63;9.68;;;;;;;;;;6293682;28;20473;-62
2022/10/11 16:24:40;;;;;;;23.00;9.77;;;;;;;;;;6289860;28;20056;-65
2022/10/11 16:27:43;;;;;;;25.90;9.93;;;;;;;;;;6293087;28;20040;-62
2022/10/11 16:30:43;;;;;;;;;;;;;;;;;;6295932;28;20056;-64
2022/10/11 16:33:46;;;;;;;24.15;9.82;;;;;;;;;;6290258;28;19978;-60
2022/10/11 16:36:48;;;;;;;41.90;15.13;;;;;;;;;;6290418;28;20131;-65
2022/10/11 16:39:49;;;;;;;38.15;16.52;;;;;;;;;;6297355;28;20098;-64
2022/10/11 16:42:49;;;;;;;48.60;19.25;;;;;;;;;;6294502;28;20054;-59
2022/10/11 16:45:56;;;;;;;40.75;16.23;;;;;;;;;;6291584;28;20178;-59
2022/10/11 16:48:57;;;;;;;34.30;15.23;;;;;;;;;;6298633;28;20060;-56
2022/10/11 16:51:58;;;;;;;52.75;17.35;;;;;;;;;;6297461;28;20415;-59
2022/10/11 16:54:59;;;;;;;49.45;17.90;;;;;;;;;;6293716;28;20453;-61
2022/10/11 16:57:59;;;;;;;44.50;16.35;;;;;;;;;;6299227;28;20126;-63
2022/10/11 17:01:00;;;;;;;41.38;16.67;;;;;;;;;;6291795;28;20056;-59
2022/10/11 17:04:02;;;;;;;45.00;16.63;;;;;;;;;;6297129;28;20056;-58
2022/10/11 17:07:03;;;;;;;49.33;16.77;;;;;;;;;;6291630;28;20048;-62
2022/10/11 17:10:04;;;;;;;64.25;19.50;;;;;;;;;;6296766;28;20052;-59
2022/10/11 17:13:05;;;;;;;69.13;23.45;;;;;;;;;;6292066;28;20563;-61
2022/10/11 17:16:06;;;;;;;55.97;21.53;;;;;;;;;;6291927;28;20052;-60
2022/10/11 17:19:14;;;;;;;56.22;20.50;;;;;;;;;;6295964;28;20055;-62
2022/10/11 17:22:18;;;;;;;64.28;21.02;;;;;;;;;;6296167;28;20070;-64
2022/10/11 17:25:18;;;;;;;69.18;23.98;;;;;;;;;;6294979;28;20047;-58
2022/10/11 17:28:19;;;;;;;71.88;23.52;;;;;;;;;;6292689;28;20643;-60
2022/10/11 17:31:20;;;;;;;65.90;24.10;;;;;;;;;;6295428;28;20060;-59
2022/10/11 17:34:21;;;;;;;61.30;22.33;;;;;;;;;;6295885;28;20567;-60
2022/10/11 17:37:21;;;;;;;64.93;23.35;;;;;;;;;;6299433;28;20067;-59
2022/10/11 17:40:22;;;;;;;81.63;29.83;;;;;;;;;;6302255;28;20138;-61
2022/10/11 17:43:22;;;;;;;72.65;28.02;;;;;;;;;;6302004;28;20075;-61
2022/10/11 17:46:24;;;;;;;71.53;30.20;;;;;;;;;;6300837;28;21212;-61
2022/10/11 17:49:25;;;;;;;85.68;34.05;;;;;;;;;;6296930;28;20155;-61
2022/10/11 17:52:25;;;;;;;73.13;32.00;;;;;;;;;;6301451;28;20052;-59
2022/10/11 17:55:26;;;;;;;71.57;29.50;;;;;;;;;;6297443;28;20052;-62
2022/10/11 17:58:26;;;;;;;72.70;27.17;;;;;;;;;;6293028;28;20057;-64
2022/10/11 18:01:28;;;;;;;63.85;26.27;;;;;;;;;;6301025;28;20479;-60
2022/10/11 18:04:29;;;;;;;52.90;23.03;;;;;;;;;;6293102;28;20057;-64